Logo Brunsvigian Airlines

Die löwenstarke Airline aus Braunschweig

Charts auf der Seite von VATEUD

LFBH 042330Z AUTO 32005KT 9999 NSC 18/14 Q1020

flugnummerleerzeichenankunftleerzeichenplanmaessig
ABS203__LONDON_CITY______11doppelpunkt00

flugnummerleerzeichenankunftleerzeichenplanmaessig
ABS202__NIZZA____________10doppelpunkt10

Kontakt   Impressum

Valid HTML 4.01 Transitional CSS ist valide!